地図

経路データ

SID SEASON NUMBER BASIN SUBBASIN NAME ISO_TIME NATURE LAT LON WMO_WIND WMO_PRES WMO_AGENCY TRACK_TYPE DIST2LAND LANDFALL IFLAG USA_AGENCY USA_ATCF_ID USA_LAT USA_LON USA_RECORD USA_STATUS USA_WIND USA_PRES USA_SSHS USA_R34_NE USA_R34_SE USA_R34_SW USA_R34_NW USA_R50_NE USA_R50_SE USA_R50_SW USA_R50_NW USA_R64_NE USA_R64_SE USA_R64_SW USA_R64_NW USA_POCI USA_ROCI USA_RMW USA_EYE TOKYO_LAT TOKYO_LON TOKYO_GRADE TOKYO_WIND TOKYO_PRES TOKYO_R50_DIR TOKYO_R50_LONG TOKYO_R50_SHORT TOKYO_R30_DIR TOKYO_R30_LONG TOKYO_R30_SHORT TOKYO_LAND CMA_LAT CMA_LON CMA_CAT CMA_WIND CMA_PRES HKO_LAT HKO_LON HKO_CAT HKO_WIND HKO_PRES NEWDELHI_LAT NEWDELHI_LON NEWDELHI_GRADE NEWDELHI_WIND NEWDELHI_PRES NEWDELHI_CI NEWDELHI_DP NEWDELHI_POCI REUNION_LAT REUNION_LON REUNION_TYPE REUNION_WIND REUNION_PRES REUNION_TNUM REUNION_CI REUNION_RMW REUNION_R34_NE REUNION_R34_SE REUNION_R34_SW REUNION_R34_NW REUNION_R50_NE REUNION_R50_SE REUNION_R50_SW REUNION_R50_NW REUNION_R64_NE REUNION_R64_SE REUNION_R64_SW REUNION_R64_NW BOM_LAT BOM_LON BOM_TYPE BOM_WIND BOM_PRES BOM_TNUM BOM_CI BOM_RMW BOM_R34_NE BOM_R34_SE BOM_R34_SW BOM_R34_NW BOM_R50_NE BOM_R50_SE BOM_R50_SW BOM_R50_NW BOM_R64_NE BOM_R64_SE BOM_R64_SW BOM_R64_NW BOM_ROCI BOM_POCI BOM_EYE BOM_POS_METHOD BOM_PRES_METHOD NADI_LAT NADI_LON NADI_CAT NADI_WIND NADI_PRES WELLINGTON_LAT WELLINGTON_LON WELLINGTON_WIND WELLINGTON_PRES DS824_LAT DS824_LON DS824_STAGE DS824_WIND DS824_PRES TD9636_LAT TD9636_LON TD9636_STAGE TD9636_WIND TD9636_PRES TD9635_LAT TD9635_LON TD9635_WIND TD9635_PRES TD9635_ROCI NEUMANN_LAT NEUMANN_LON NEUMANN_CLASS NEUMANN_WIND NEUMANN_PRES MLC_LAT MLC_LON MLC_CLASS MLC_WIND MLC_PRES USA_GUST BOM_GUST BOM_GUST_PER REUNION_GUST REUNION_GUST_PER USA_SEAHGT USA_SEARAD_NE USA_SEARAD_SE USA_SEARAD_SW USA_SEARAD_NW STORM_SPEED STORM_DIR
1941002S12058 1941 1 SI MM NOT_NAMED 1941-01-02 06:00:00 NR -12.4000 57.6000 reunion main 827 827 _____O________ -1 -12.4000 57.6000 99 9.90000 3 44
1941002S12058 1941 1 SI MM NOT_NAMED 1941-01-02 09:00:00 NR -12.3053 57.6923 main 840 840 _____P________ -1 -12.3053 57.6923 99 2 43
1941002S12058 1941 1 SI MM NOT_NAMED 1941-01-02 12:00:00 NR -12.2209 57.7710 main 853 853 _____P________ -1 -12.2209 57.7710 99 2 40
1941002S12058 1941 1 SI MM NOT_NAMED 1941-01-02 15:00:00 NR -12.1569 57.8226 main 853 853 _____P________ -1 -12.1569 57.8226 99 0 0
1941002S12058 1941 1 SI MM NOT_NAMED 1941-01-02 18:00:00 NR -12.1788 57.7868 main 853 843 _____P____O___ -1 -12.1235 57.8335 99 -12.4000 57.6000 2 1 237
1941002S12058 1941 1 SI MM NOT_NAMED 1941-01-02 21:00:00 NR -12.2132 57.7330 main 843 830 _____P____P___ -1 -12.1310 57.7904 99 -12.3776 57.6183 2 2 237
1941002S12058 1941 1 SI MM NOT_NAMED 1941-01-03 00:00:00 NR -12.2729 57.6409 main 830 817 _____P____P___ -1 -12.1895 57.6796 99 -12.3842 57.5893 2 3 237
1941002S12058 1941 1 SI MM NOT_NAMED 1941-01-03 03:00:00 NR -12.3789 57.4766 main 817 782 _____P____P___ -1 -12.3091 57.4874 99 -12.4487 57.4657 2 5 237
1941002S12058 1941 1 SI MM NOT_NAMED 1941-01-03 06:00:00 TS -12.5556 57.2000 reunion main 779 731 _____O___OO___ -1 -12.5000 57.2000 99 9.90000 -12.6000 57.2000 TC 35 -12.6000 57.2000 2 9 237
1941002S12058 1941 1 SI MM NOT_NAMED 1941-01-03 09:00:00 TS -12.8396 56.7455 main 721 654 _____P___PP___ -1 -12.7684 56.8100 99 -12.9454 56.5804 TC 35 -12.8580 56.7636 2 12 237
1941002S12058 1941 1 SI MM NOT_NAMED 1941-01-03 12:00:00 TS -13.1961 56.1975 main 654 588 _____P___OP___ -1 -13.1056 56.3375 99 -13.3000 56.0000 TC 35 -13.2087 56.2055 2 13 235
1941002S12058 1941 1 SI MM NOT_NAMED 1941-01-03 15:00:00 TS -13.6023 55.6296 main 577 513 _____P___PP___ -1 -13.4995 55.8095 99 -13.6773 55.4847 TC 35 -13.6299 55.5946 2 14 232
1941002S12058 1941 1 SI MM NOT_NAMED 1941-01-03 18:00:00 TS -14.0460 55.0844 main 513 447 _____P___OO___ -1 -13.9379 55.2532 99 -14.1000 55.0000 TC 35 -14.1000 55.0000 2 14 228
1941002S12058 1941 1 SI MM NOT_NAMED 1941-01-03 21:00:00 TS -14.5294 54.5501 main 447 387 _____P___PP___ -1 -14.4087 54.6961 99 -14.5775 54.4849 TC 35 -14.6022 54.4692 2 14 225
1941002S12058 1941 1 SI MM NOT_NAMED 1941-01-04 00:00:00 TS -15.0476 54.0466 main 376 332 _____P___OP___ -1 -14.9002 54.1661 99 -15.1000 54.0000 TC 35 -15.1426 53.9737 2 14 221
1941002S12058 1941 1 SI MM NOT_NAMED 1941-01-04 03:00:00 TS -15.5842 53.5934 main 333 299 _____P___PP___ -1 -15.4010 53.6913 99 -15.6650 53.5476 TC 35 -15.6867 53.5412 2 13 217
1941002S12058 1941 1 SI MM NOT_NAMED 1941-01-04 06:00:00 TS -16.1000 53.2333 reunion main 299 289 _____O___OO___ -1 -15.9000 53.3000 99 9.90000 -16.2000 53.2000 TC 35 -16.2000 53.2000 2 11 211
1941002S12058 1941 1 SI MM NOT_NAMED 1941-01-04 09:00:00 TS -16.5338 52.9882 main 294 289 _____P___PP___ -1 -16.3518 53.0116 99 -16.6224 53.0047 TC 35 -16.6272 52.9482 2 9 205
1941002S12058 1941 1 SI MM NOT_NAMED 1941-01-04 12:00:00 TS -16.9442 52.8271 main 293 293 _____P___OP___ -1 -16.8109 52.7896 99 -17.0000 52.9000 TC 35 -17.0218 52.7916 2 9 198
1941002S12058 1941 1 SI MM NOT_NAMED 1941-01-04 15:00:00 TS -17.3578 52.7094 main 308 308 _____P___PP___ -1 -17.2754 52.6364 99 -17.3925 52.7775 TC 35 -17.4055 52.7143 2 9 191
1941002S12058 1941 1 SI MM NOT_NAMED 1941-01-04 18:00:00 TS -17.7810 52.6516 main 327 317 _____P___OO___ -1 -17.7431 52.5548 99 -17.8000 52.7000 TC 35 -17.8000 52.7000 2 9 185
1941002S12058 1941 1 SI MM NOT_NAMED 1941-01-04 21:00:00 TS -18.2284 52.6225 main 332 332 _____P___PP___ -1 -18.2117 52.5475 99 -18.2425 52.6626 TC 35 -18.2311 52.6573 2 9 0
1941002S12058 1941 1 SI MM NOT_NAMED 1941-01-05 00:00:00 TS -18.6853 52.6654 main 352 335 _____P___OP___ -1 -18.6790 52.6173 99 -18.7000 52.7000 TC 35 -18.6767 52.6789 2 9 171
1941002S12058 1941 1 SI MM NOT_NAMED 1941-01-05 03:00:00 TS -19.1397 52.7811 main 335 284 _____P___PP___ -1 -19.1426 52.7671 99 -19.1424 52.7903 TC 35 -19.1340 52.7859 2 10 161
1941002S12058 1941 1 SI MM NOT_NAMED 1941-01-05 06:00:00 TS -19.6000 53.0000 reunion main 284 227 _____O___OO___ -1 -19.6000 53.0000 99 9.90000 -19.6000 53.0000 TC 35 -19.6000 53.0000 2 11 151
1941002S12058 1941 1 SI MM NOT_NAMED 1941-01-05 09:00:00 TS -20.0920 53.3391 main 227 155 _____P___PP___ -1 -20.0918 53.3487 99 -20.1000 53.3475 TC 35 -20.0842 53.3212 2 12 143
1941002S12058 1941 1 SI MM NOT_NAMED 1941-01-05 12:00:00 TS -20.5854 53.7821 main 155 94 _____P___OP___ -1 -20.5835 53.7971 99 -20.6000 53.8000 TC 35 -20.5726 53.7492 2 13 138
1941002S12058 1941 1 SI MM NOT_NAMED 1941-01-05 15:00:00 TS -21.0600 54.2833 main 93 56 _____P___PP___ -1 -21.0654 54.3194 99 -21.0649 54.2777 TC 35 -21.0497 54.2528 2 13 133
1941002S12058 1941 1 SI MM NOT_NAMED 1941-01-05 18:00:00 TS -21.5092 54.8298 main 56 45 _____P___OO___ -1 -21.5277 54.8893 99 -21.5000 54.8000 TC 35 -21.5000 54.8000 2 14 130
1941002S12058 1941 1 SI MM NOT_NAMED 1941-01-05 21:00:00 TS -21.9296 55.3929 main 59 59 _____P___PP___ -1 -21.9612 55.4800 99 -21.9148 55.3353 TC 35 -21.9128 55.3635 2 13 127
1941002S12058 1941 1 SI MM NOT_NAMED 1941-01-06 00:00:00 TS -22.3208 55.9764 main 108 108 _____P___OP___ -1 -22.3567 56.0639 99 -22.3000 55.9000 TC 35 -22.2938 55.9360 2 13 125
1941002S12058 1941 1 SI MM NOT_NAMED 1941-01-06 03:00:00 TS -22.6806 56.5585 main 176 176 _____P___PP___ -1 -22.7057 56.6133 99 -22.6580 56.4919 TC 35 -22.6529 56.5156 2 12 123
1941002S12058 1941 1 SI MM NOT_NAMED 1941-01-06 06:00:00 TS -23.0000 57.1000 reunion main 232 232 _____O___OO___ -1 -23.0000 57.1000 99 9.90000 -23.0000 57.1000 TC 35 -23.0000 57.1000 2 10 123
1941002S12058 1941 1 SI MM NOT_NAMED 1941-01-06 09:00:00 NR -23.2344 57.5021 main 275 275 _____P________ -1 -23.2344 57.5021 99 TC 2 8 122
1941002S12058 1941 1 SI MM NOT_NAMED 1941-01-06 12:00:00 NR -23.4145 57.8238 main 312 312 _____P________ -1 -23.4145 57.8238 99 2 6 121
1941002S12058 1941 1 SI MM NOT_NAMED 1941-01-06 15:00:00 NR -23.5485 58.0764 main 337 337 _____P________ -1 -23.5485 58.0764 99 2 5 119
1941002S12058 1941 1 SI MM NOT_NAMED 1941-01-06 18:00:00 NR -23.6444 58.2709 main 352 352 _____P________ -1 -23.6444 58.2709 99 4 117
1941002S12058 1941 1 SI MM NOT_NAMED 1941-01-06 21:00:00 NR -23.7098 58.4190 main 364 364 _____P________ -1 -23.7098 58.4190 99 3 114
1941002S12058 1941 1 SI MM NOT_NAMED 1941-01-07 00:00:00 NR -23.7524 58.5321 main 378 378 _____P________ -1 -23.7524 58.5321 99 2 111
1941002S12058 1941 1 SI MM NOT_NAMED 1941-01-07 03:00:00 NR -23.7800 58.6219 main 380 380 _____P________ -1 -23.7800 58.6219 99 2 107
1941002S12058 1941 1 SI MM NOT_NAMED 1941-01-07 06:00:00 NR -23.8000 58.7000 reunion main 383 _____O________ -1 -23.8000 58.7000 99 9.90000 1 107

IBTrACS Databaseについて

本データベースは、米国NOAAが公開する1842年以降の世界の熱帯低気圧のベストトラックデータアーカイブInternational Best Track Archive for Climate Stewardship (IBTrACS)を、ウェブで閲覧しやすい形式に変換したものです。

最終更新日:2021-12-03